sensor_id;sensor_type;location;lat;lon;timestamp;P1;durP1;ratioP1;P2;durP2;ratioP2
42198;SDS011;27868;45.184;5.786;2023-02-01T00:01:05;33.58;;;15.13;;
42198;SDS011;27868;45.184;5.786;2023-02-01T00:03:51;34.00;;;17.13;;
42198;SDS011;27868;45.184;5.786;2023-02-01T00:06:36;32.15;;;16.23;;
42198;SDS011;27868;45.184;5.786;2023-02-01T00:09:21;30.83;;;14.65;;
42198;SDS011;27868;45.184;5.786;2023-02-01T00:12:06;27.98;;;14.70;;
42198;SDS011;27868;45.184;5.786;2023-02-01T00:14:50;27.75;;;15.23;;
42198;SDS011;27868;45.184;5.786;2023-02-01T00:17:35;29.08;;;14.77;;
42198;SDS011;27868;45.184;5.786;2023-02-01T00:20:19;32.70;;;14.85;;
42198;SDS011;27868;45.184;5.786;2023-02-01T00:23:04;32.85;;;15.80;;
42198;SDS011;27868;45.184;5.786;2023-02-01T00:25:52;28.33;;;15.07;;
42198;SDS011;27868;45.184;5.786;2023-02-01T00:28:37;33.55;;;15.30;;
42198;SDS011;27868;45.184;5.786;2023-02-01T00:31:22;29.38;;;14.30;;
42198;SDS011;27868;45.184;5.786;2023-02-01T00:34:07;29.30;;;14.98;;
42198;SDS011;27868;45.184;5.786;2023-02-01T00:36:53;29.63;;;14.90;;
42198;SDS011;27868;45.184;5.786;2023-02-01T00:39:38;32.42;;;15.48;;
42198;SDS011;27868;45.184;5.786;2023-02-01T00:42:23;37.22;;;16.13;;
42198;SDS011;27868;45.184;5.786;2023-02-01T00:45:08;32.42;;;14.90;;
42198;SDS011;27868;45.184;5.786;2023-02-01T00:47:53;34.15;;;16.02;;
42198;SDS011;27868;45.184;5.786;2023-02-01T00:50:41;36.58;;;15.35;;
42198;SDS011;27868;45.184;5.786;2023-02-01T00:53:27;31.88;;;15.30;;
42198;SDS011;27868;45.184;5.786;2023-02-01T00:56:12;30.48;;;14.98;;
42198;SDS011;27868;45.184;5.786;2023-02-01T00:58:57;32.22;;;14.52;;
42198;SDS011;27868;45.184;5.786;2023-02-01T01:01:41;31.50;;;14.80;;
42198;SDS011;27868;45.184;5.786;2023-02-01T01:04:26;31.15;;;14.73;;
42198;SDS011;27868;45.184;5.786;2023-02-01T01:07:10;34.92;;;14.95;;
42198;SDS011;27868;45.184;5.786;2023-02-01T01:09:55;30.92;;;14.38;;
42198;SDS011;27868;45.184;5.786;2023-02-01T01:12:39;31.92;;;14.63;;
42198;SDS011;27868;45.184;5.786;2023-02-01T01:15:24;29.45;;;14.50;;
42198;SDS011;27868;45.184;5.786;2023-02-01T01:18:09;27.13;;;13.88;;
42198;SDS011;27868;45.184;5.786;2023-02-01T01:20:54;29.23;;;14.52;;
42198;SDS011;27868;45.184;5.786;2023-02-01T01:23:38;32.92;;;15.35;;
42198;SDS011;27868;45.184;5.786;2023-02-01T01:26:27;32.00;;;15.38;;
42198;SDS011;27868;45.184;5.786;2023-02-01T01:29:13;30.30;;;14.13;;
42198;SDS011;27868;45.184;5.786;2023-02-01T01:31:58;29.55;;;13.85;;
42198;SDS011;27868;45.184;5.786;2023-02-01T01:34:42;33.72;;;15.02;;
42198;SDS011;27868;45.184;5.786;2023-02-01T01:37:27;28.63;;;14.93;;
42198;SDS011;27868;45.184;5.786;2023-02-01T01:40:11;28.35;;;14.55;;
42198;SDS011;27868;45.184;5.786;2023-02-01T01:42:57;31.70;;;15.57;;
42198;SDS011;27868;45.184;5.786;2023-02-01T01:45:42;33.50;;;15.75;;
42198;SDS011;27868;45.184;5.786;2023-02-01T01:48:28;29.63;;;15.98;;
42198;SDS011;27868;45.184;5.786;2023-02-01T01:51:14;31.65;;;15.73;;
42198;SDS011;27868;45.184;5.786;2023-02-01T01:54:23;30.83;;;14.65;;
42198;SDS011;27868;45.184;5.786;2023-02-01T01:57:16;35.17;;;16.35;;
42198;SDS011;27868;45.184;5.786;2023-02-01T02:00:06;30.88;;;14.80;;
42198;SDS011;27868;45.184;5.786;2023-02-01T02:02:58;31.85;;;15.73;;
42198;SDS011;27868;45.184;5.786;2023-02-01T02:05:50;35.83;;;16.50;;
42198;SDS011;27868;45.184;5.786;2023-02-01T02:08:38;33.17;;;16.38;;
42198;SDS011;27868;45.184;5.786;2023-02-01T02:11:22;39.92;;;18.00;;
42198;SDS011;27868;45.184;5.786;2023-02-01T02:14:08;32.88;;;16.02;;
42198;SDS011;27868;45.184;5.786;2023-02-01T02:17:03;32.58;;;15.65;;
42198;SDS011;27868;45.184;5.786;2023-02-01T02:19:54;35.63;;;16.20;;
42198;SDS011;27868;45.184;5.786;2023-02-01T02:22:58;30.30;;;15.00;;
42198;SDS011;27868;45.184;5.786;2023-02-01T02:26:00;36.72;;;16.13;;
42198;SDS011;27868;45.184;5.786;2023-02-01T02:32:19;33.90;;;16.08;;
42198;SDS011;27868;45.184;5.786;2023-02-01T02:41:33;33.83;;;16.50;;
42198;SDS011;27868;45.184;5.786;2023-02-01T02:51:00;34.40;;;17.15;;
42198;SDS011;27868;45.184;5.786;2023-02-01T02:54:10;37.17;;;16.95;;
42198;SDS011;27868;45.184;5.786;2023-02-01T02:57:26;36.63;;;17.30;;
42198;SDS011;27868;45.184;5.786;2023-02-01T03:00:33;36.58;;;17.40;;
42198;SDS011;27868;45.184;5.786;2023-02-01T03:03:38;34.22;;;16.92;;
42198;SDS011;27868;45.184;5.786;2023-02-01T03:06:42;34.25;;;17.05;;
42198;SDS011;27868;45.184;5.786;2023-02-01T03:09:30;35.03;;;16.90;;
42198;SDS011;27868;45.184;5.786;2023-02-01T03:12:18;34.72;;;16.83;;
42198;SDS011;27868;45.184;5.786;2023-02-01T03:15:36;33.72;;;16.52;;
42198;SDS011;27868;45.184;5.786;2023-02-01T03:25:03;36.47;;;16.67;;
42198;SDS011;27868;45.184;5.786;2023-02-01T03:30:44;32.97;;;16.25;;
42198;SDS011;27868;45.184;5.786;2023-02-01T03:33:28;37.15;;;17.65;;
42198;SDS011;27868;45.184;5.786;2023-02-01T03:39:29;31.67;;;15.07;;
42198;SDS011;27868;45.184;5.786;2023-02-01T03:42:32;29.85;;;14.70;;
42198;SDS011;27868;45.184;5.786;2023-02-01T03:45:33;34.70;;;16.20;;
42198;SDS011;27868;45.184;5.786;2023-02-01T03:48:24;28.45;;;14.98;;
42198;SDS011;27868;45.184;5.786;2023-02-01T03:51:12;31.65;;;14.73;;
42198;SDS011;27868;45.184;5.786;2023-02-01T03:53:57;29.15;;;14.85;;
42198;SDS011;27868;45.184;5.786;2023-02-01T03:56:46;31.15;;;16.40;;
42198;SDS011;27868;45.184;5.786;2023-02-01T03:59:32;32.28;;;16.90;;
42198;SDS011;27868;45.184;5.786;2023-02-01T04:02:16;34.40;;;15.13;;
42198;SDS011;27868;45.184;5.786;2023-02-01T04:05:01;35.50;;;16.20;;
42198;SDS011;27868;45.184;5.786;2023-02-01T04:07:47;33.92;;;15.10;;
42198;SDS011;27868;45.184;5.786;2023-02-01T04:10:32;36.83;;;16.00;;
42198;SDS011;27868;45.184;5.786;2023-02-01T04:13:16;30.08;;;14.75;;
42198;SDS011;27868;45.184;5.786;2023-02-01T04:16:01;33.25;;;14.95;;
42198;SDS011;27868;45.184;5.786;2023-02-01T04:18:46;30.38;;;15.00;;
42198;SDS011;27868;45.184;5.786;2023-02-01T04:21:31;31.38;;;15.00;;
42198;SDS011;27868;45.184;5.786;2023-02-01T04:24:15;34.42;;;16.10;;
42198;SDS011;27868;45.184;5.786;2023-02-01T04:27:00;30.38;;;14.90;;
42198;SDS011;27868;45.184;5.786;2023-02-01T04:29:47;35.05;;;15.02;;
42198;SDS011;27868;45.184;5.786;2023-02-01T04:32:36;34.60;;;16.35;;
42198;SDS011;27868;45.184;5.786;2023-02-01T04:35:21;31.17;;;16.38;;
42198;SDS011;27868;45.184;5.786;2023-02-01T04:38:05;32.70;;;15.32;;
42198;SDS011;27868;45.184;5.786;2023-02-01T04:40:51;28.40;;;14.27;;
42198;SDS011;27868;45.184;5.786;2023-02-01T04:43:35;33.30;;;15.43;;
42198;SDS011;27868;45.184;5.786;2023-02-01T04:46:19;32.85;;;15.40;;
42198;SDS011;27868;45.184;5.786;2023-02-01T04:49:04;28.08;;;14.05;;
42198;SDS011;27868;45.184;5.786;2023-02-01T04:51:49;31.95;;;16.60;;
42198;SDS011;27868;45.184;5.786;2023-02-01T04:54:34;36.60;;;17.27;;
42198;SDS011;27868;45.184;5.786;2023-02-01T04:57:18;42.08;;;17.75;;
42198;SDS011;27868;45.184;5.786;2023-02-01T05:00:03;35.58;;;17.20;;
42198;SDS011;27868;45.184;5.786;2023-02-01T05:02:49;36.95;;;18.85;;
42198;SDS011;27868;45.184;5.786;2023-02-01T05:05:34;38.15;;;19.25;;
42198;SDS011;27868;45.184;5.786;2023-02-01T05:08:18;38.25;;;18.20;;
42198;SDS011;27868;45.184;5.786;2023-02-01T05:11:03;33.08;;;18.10;;
42198;SDS011;27868;45.184;5.786;2023-02-01T05:13:48;33.10;;;16.42;;
42198;SDS011;27868;45.184;5.786;2023-02-01T05:16:33;36.00;;;18.10;;
42198;SDS011;27868;45.184;5.786;2023-02-01T05:19:17;35.22;;;16.63;;
42198;SDS011;27868;45.184;5.786;2023-02-01T05:22:02;35.53;;;17.13;;
42198;SDS011;27868;45.184;5.786;2023-02-01T05:24:47;38.03;;;17.23;;
42198;SDS011;27868;45.184;5.786;2023-02-01T05:27:31;35.50;;;16.60;;
42198;SDS011;27868;45.184;5.786;2023-02-01T05:30:16;31.40;;;14.80;;
42198;SDS011;27868;45.184;5.786;2023-02-01T05:33:01;31.42;;;15.93;;
42198;SDS011;27868;45.184;5.786;2023-02-01T05:35:46;30.13;;;15.82;;
42198;SDS011;27868;45.184;5.786;2023-02-01T05:38:31;31.75;;;16.08;;
42198;SDS011;27868;45.184;5.786;2023-02-01T05:41:16;30.05;;;16.23;;
42198;SDS011;27868;45.184;5.786;2023-02-01T05:44:01;32.40;;;14.85;;
42198;SDS011;27868;45.184;5.786;2023-02-01T05:46:46;28.90;;;15.27;;
42198;SDS011;27868;45.184;5.786;2023-02-01T05:49:31;28.90;;;15.73;;
42198;SDS011;27868;45.184;5.786;2023-02-01T05:52:15;26.58;;;14.40;;
42198;SDS011;27868;45.184;5.786;2023-02-01T05:55:03;30.63;;;14.57;;
42198;SDS011;27868;45.184;5.786;2023-02-01T05:57:48;27.60;;;15.30;;
42198;SDS011;27868;45.184;5.786;2023-02-01T06:00:32;28.20;;;14.40;;
42198;SDS011;27868;45.184;5.786;2023-02-01T06:03:17;30.30;;;14.63;;
42198;SDS011;27868;45.184;5.786;2023-02-01T06:06:03;28.60;;;13.57;;
42198;SDS011;27868;45.184;5.786;2023-02-01T06:08:48;29.50;;;14.30;;
42198;SDS011;27868;45.184;5.786;2023-02-01T06:11:33;32.60;;;14.80;;
42198;SDS011;27868;45.184;5.786;2023-02-01T06:14:17;28.60;;;14.20;;
42198;SDS011;27868;45.184;5.786;2023-02-01T06:17:01;29.60;;;14.02;;
42198;SDS011;27868;45.184;5.786;2023-02-01T06:19:46;27.17;;;14.40;;
42198;SDS011;27868;45.184;5.786;2023-02-01T06:22:32;31.00;;;14.45;;
42198;SDS011;27868;45.184;5.786;2023-02-01T06:25:17;31.77;;;15.10;;
42198;SDS011;27868;45.184;5.786;2023-02-01T06:28:02;30.92;;;15.80;;
42198;SDS011;27868;45.184;5.786;2023-02-01T06:30:49;36.03;;;16.60;;
42198;SDS011;27868;45.184;5.786;2023-02-01T06:33:34;34.45;;;14.88;;
42198;SDS011;27868;45.184;5.786;2023-02-01T06:36:19;33.25;;;14.63;;
42198;SDS011;27868;45.184;5.786;2023-02-01T06:39:05;29.75;;;14.65;;
42198;SDS011;27868;45.184;5.786;2023-02-01T06:41:49;29.83;;;13.98;;
42198;SDS011;27868;45.184;5.786;2023-02-01T06:44:34;27.88;;;13.18;;
42198;SDS011;27868;45.184;5.786;2023-02-01T06:47:19;24.40;;;12.45;;
42198;SDS011;27868;45.184;5.786;2023-02-01T06:50:03;30.60;;;14.40;;
42198;SDS011;27868;45.184;5.786;2023-02-01T06:52:49;28.75;;;14.50;;
42198;SDS011;27868;45.184;5.786;2023-02-01T06:55:33;27.45;;;13.98;;
42198;SDS011;27868;45.184;5.786;2023-02-01T06:58:18;26.95;;;13.95;;
42198;SDS011;27868;45.184;5.786;2023-02-01T07:01:06;29.25;;;15.35;;
42198;SDS011;27868;45.184;5.786;2023-02-01T07:03:52;31.90;;;14.98;;
42198;SDS011;27868;45.184;5.786;2023-02-01T07:06:37;30.58;;;14.60;;
42198;SDS011;27868;45.184;5.786;2023-02-01T07:09:23;28.10;;;15.13;;
42198;SDS011;27868;45.184;5.786;2023-02-01T07:12:08;27.45;;;13.40;;
42198;SDS011;27868;45.184;5.786;2023-02-01T07:14:53;30.48;;;14.13;;
42198;SDS011;27868;45.184;5.786;2023-02-01T07:17:37;26.88;;;13.80;;
42198;SDS011;27868;45.184;5.786;2023-02-01T07:20:22;29.38;;;14.73;;
42198;SDS011;27868;45.184;5.786;2023-02-01T07:23:10;25.27;;;13.80;;
42198;SDS011;27868;45.184;5.786;2023-02-01T07:26:00;26.75;;;12.45;;
42198;SDS011;27868;45.184;5.786;2023-02-01T07:28:47;26.85;;;13.65;;
42198;SDS011;27868;45.184;5.786;2023-02-01T07:31:32;27.67;;;13.43;;
42198;SDS011;27868;45.184;5.786;2023-02-01T07:34:16;29.63;;;13.40;;
42198;SDS011;27868;45.184;5.786;2023-02-01T07:37:01;28.08;;;14.13;;
42198;SDS011;27868;45.184;5.786;2023-02-01T07:39:46;37.72;;;17.05;;
42198;SDS011;27868;45.184;5.786;2023-02-01T07:42:31;28.38;;;15.13;;
42198;SDS011;27868;45.184;5.786;2023-02-01T07:45:16;28.73;;;14.57;;
42198;SDS011;27868;45.184;5.786;2023-02-01T07:48:01;27.77;;;13.13;;
42198;SDS011;27868;45.184;5.786;2023-02-01T07:50:46;28.58;;;12.43;;
42198;SDS011;27868;45.184;5.786;2023-02-01T07:53:31;24.75;;;12.48;;
42198;SDS011;27868;45.184;5.786;2023-02-01T07:56:18;24.38;;;13.30;;
42198;SDS011;27868;45.184;5.786;2023-02-01T07:59:04;25.10;;;13.40;;
42198;SDS011;27868;45.184;5.786;2023-02-01T08:01:48;30.10;;;12.85;;
42198;SDS011;27868;45.184;5.786;2023-02-01T08:04:33;36.65;;;15.65;;
42198;SDS011;27868;45.184;5.786;2023-02-01T08:07:17;38.38;;;15.75;;
42198;SDS011;27868;45.184;5.786;2023-02-01T08:10:01;35.42;;;14.68;;
42198;SDS011;27868;45.184;5.786;2023-02-01T08:12:47;33.22;;;14.73;;
42198;SDS011;27868;45.184;5.786;2023-02-01T08:15:33;26.63;;;14.07;;
42198;SDS011;27868;45.184;5.786;2023-02-01T08:18:17;28.52;;;12.95;;
42198;SDS011;27868;45.184;5.786;2023-02-01T08:21:02;34.50;;;14.95;;
42198;SDS011;27868;45.184;5.786;2023-02-01T08:23:51;27.95;;;13.90;;
42198;SDS011;27868;45.184;5.786;2023-02-01T08:26:37;31.33;;;14.30;;
42198;SDS011;27868;45.184;5.786;2023-02-01T08:29:22;27.35;;;13.65;;
42198;SDS011;27868;45.184;5.786;2023-02-01T08:32:06;25.92;;;13.73;;
42198;SDS011;27868;45.184;5.786;2023-02-01T08:34:51;33.85;;;15.65;;
42198;SDS011;27868;45.184;5.786;2023-02-01T08:37:35;32.00;;;16.15;;
42198;SDS011;27868;45.184;5.786;2023-02-01T08:40:20;35.45;;;16.17;;
42198;SDS011;27868;45.184;5.786;2023-02-01T08:43:05;34.20;;;15.38;;
42198;SDS011;27868;45.184;5.786;2023-02-01T08:45:50;30.63;;;15.43;;
42198;SDS011;27868;45.184;5.786;2023-02-01T08:48:38;37.50;;;17.23;;
42198;SDS011;27868;45.184;5.786;2023-02-01T08:51:23;33.20;;;16.58;;
42198;SDS011;27868;45.184;5.786;2023-02-01T08:54:08;34.35;;;15.50;;
42198;SDS011;27868;45.184;5.786;2023-02-01T08:56:53;26.80;;;14.27;;
42198;SDS011;27868;45.184;5.786;2023-02-01T08:59:38;32.75;;;15.65;;
42198;SDS011;27868;45.184;5.786;2023-02-01T09:02:23;28.10;;;14.10;;
42198;SDS011;27868;45.184;5.786;2023-02-01T09:05:07;28.52;;;14.07;;
42198;SDS011;27868;45.184;5.786;2023-02-01T09:07:52;25.70;;;14.25;;
42198;SDS011;27868;45.184;5.786;2023-02-01T09:10:37;33.30;;;15.48;;
42198;SDS011;27868;45.184;5.786;2023-02-01T09:13:22;27.77;;;13.75;;
42198;SDS011;27868;45.184;5.786;2023-02-01T09:16:06;27.85;;;13.45;;
42198;SDS011;27868;45.184;5.786;2023-02-01T09:18:51;27.10;;;13.70;;
42198;SDS011;27868;45.184;5.786;2023-02-01T09:21:35;31.38;;;14.57;;
42198;SDS011;27868;45.184;5.786;2023-02-01T09:24:19;23.83;;;13.40;;
42198;SDS011;27868;45.184;5.786;2023-02-01T09:27:04;27.50;;;13.07;;
42198;SDS011;27868;45.184;5.786;2023-02-01T09:29:49;29.30;;;15.75;;
42198;SDS011;27868;45.184;5.786;2023-02-01T09:32:36;29.83;;;14.75;;
42198;SDS011;27868;45.184;5.786;2023-02-01T09:35:21;26.20;;;14.15;;
42198;SDS011;27868;45.184;5.786;2023-02-01T09:38:05;22.80;;;12.20;;
42198;SDS011;27868;45.184;5.786;2023-02-01T09:40:50;23.38;;;12.00;;
42198;SDS011;27868;45.184;5.786;2023-02-01T09:43:43;28.23;;;13.73;;
42198;SDS011;27868;45.184;5.786;2023-02-01T09:46:39;23.88;;;12.63;;
42198;SDS011;27868;45.184;5.786;2023-02-01T09:49:32;24.23;;;13.15;;
42198;SDS011;27868;45.184;5.786;2023-02-01T09:52:19;22.60;;;11.80;;
42198;SDS011;27868;45.184;5.786;2023-02-01T09:55:13;22.25;;;11.52;;
42198;SDS011;27868;45.184;5.786;2023-02-01T10:01:23;21.85;;;11.35;;
42198;SDS011;27868;45.184;5.786;2023-02-01T10:04:10;30.90;;;12.30;;
42198;SDS011;27868;45.184;5.786;2023-02-01T10:07:12;24.13;;;11.93;;
42198;SDS011;27868;45.184;5.786;2023-02-01T10:14:06;22.47;;;10.70;;
42198;SDS011;27868;45.184;5.786;2023-02-01T10:16:43;19.25;;;10.65;;
42198;SDS011;27868;45.184;5.786;2023-02-01T10:19:44;20.17;;;10.45;;
42198;SDS011;27868;45.184;5.786;2023-02-01T10:23:25;24.38;;;11.43;;
42198;SDS011;27868;45.184;5.786;2023-02-01T10:29:12;22.15;;;10.18;;
42198;SDS011;27868;45.184;5.786;2023-02-01T10:32:02;21.92;;;10.77;;
42198;SDS011;27868;45.184;5.786;2023-02-01T10:34:55;24.98;;;11.15;;
42198;SDS011;27868;45.184;5.786;2023-02-01T10:37:42;22.98;;;11.32;;
42198;SDS011;27868;45.184;5.786;2023-02-01T10:40:29;21.55;;;11.32;;
42198;SDS011;27868;45.184;5.786;2023-02-01T10:43:14;23.00;;;12.00;;
42198;SDS011;27868;45.184;5.786;2023-02-01T10:45:59;23.48;;;11.38;;
42198;SDS011;27868;45.184;5.786;2023-02-01T10:48:43;22.70;;;11.40;;
42198;SDS011;27868;45.184;5.786;2023-02-01T10:51:51;18.15;;;10.00;;
42198;SDS011;27868;45.184;5.786;2023-02-01T10:54:53;22.80;;;10.93;;
42198;SDS011;27868;45.184;5.786;2023-02-01T10:57:38;24.13;;;10.77;;
42198;SDS011;27868;45.184;5.786;2023-02-01T11:00:22;20.27;;;10.60;;
42198;SDS011;27868;45.184;5.786;2023-02-01T11:03:30;21.02;;;11.23;;
42198;SDS011;27868;45.184;5.786;2023-02-01T11:06:30;18.88;;;10.07;;
42198;SDS011;27868;45.184;5.786;2023-02-01T11:09:24;25.83;;;10.25;;
42198;SDS011;27868;45.184;5.786;2023-02-01T11:12:27;19.98;;;9.63;;
42198;SDS011;27868;45.184;5.786;2023-02-01T11:15:18;20.70;;;9.63;;
42198;SDS011;27868;45.184;5.786;2023-02-01T11:18:17;15.98;;;9.20;;
42198;SDS011;27868;45.184;5.786;2023-02-01T11:23:49;18.88;;;9.88;;
42198;SDS011;27868;45.184;5.786;2023-02-01T11:26:33;15.68;;;8.80;;
42198;SDS011;27868;45.184;5.786;2023-02-01T11:32:14;19.52;;;9.15;;
42198;SDS011;27868;45.184;5.786;2023-02-01T11:35:02;19.15;;;9.52;;
42198;SDS011;27868;45.184;5.786;2023-02-01T11:37:52;17.35;;;8.60;;
42198;SDS011;27868;45.184;5.786;2023-02-01T11:40:39;16.10;;;8.52;;
42198;SDS011;27868;45.184;5.786;2023-02-01T11:43:25;15.68;;;7.60;;
42198;SDS011;27868;45.184;5.786;2023-02-01T11:46:16;15.77;;;7.40;;
42198;SDS011;27868;45.184;5.786;2023-02-01T12:04:16;12.77;;;4.75;;
42198;SDS011;27868;45.184;5.786;2023-02-01T12:12:50;10.30;;;5.18;;
42198;SDS011;27868;45.184;5.786;2023-02-01T12:15:44;9.15;;;5.15;;
42198;SDS011;27868;45.184;5.786;2023-02-01T12:22:00;9.85;;;4.70;;
42198;SDS011;27868;45.184;5.786;2023-02-01T12:46:33;10.27;;;4.80;;
42198;SDS011;27868;45.184;5.786;2023-02-01T12:49:28;11.05;;;4.90;;
42198;SDS011;27868;45.184;5.786;2023-02-01T12:55:26;12.40;;;4.97;;
42198;SDS011;27868;45.184;5.786;2023-02-01T12:58:16;10.82;;;5.30;;
42198;SDS011;27868;45.184;5.786;2023-02-01T13:01:06;10.05;;;5.00;;
42198;SDS011;27868;45.184;5.786;2023-02-01T13:04:13;9.38;;;4.53;;
42198;SDS011;27868;45.184;5.786;2023-02-01T13:07:07;15.73;;;4.95;;
42198;SDS011;27868;45.184;5.786;2023-02-01T13:10:01;11.60;;;5.05;;
42198;SDS011;27868;45.184;5.786;2023-02-01T13:16:23;8.25;;;5.00;;
42198;SDS011;27868;45.184;5.786;2023-02-01T13:19:16;9.80;;;4.93;;
42198;SDS011;27868;45.184;5.786;2023-02-01T13:22:12;10.90;;;4.75;;
42198;SDS011;27868;45.184;5.786;2023-02-01T13:28:12;9.75;;;4.72;;
42198;SDS011;27868;45.184;5.786;2023-02-01T13:40:17;10.63;;;4.82;;
42198;SDS011;27868;45.184;5.786;2023-02-01T13:46:04;8.88;;;4.68;;
42198;SDS011;27868;45.184;5.786;2023-02-01T13:48:54;10.85;;;4.60;;
42198;SDS011;27868;45.184;5.786;2023-02-01T13:51:43;8.05;;;4.18;;
42198;SDS011;27868;45.184;5.786;2023-02-01T13:54:31;14.35;;;4.88;;
42198;SDS011;27868;45.184;5.786;2023-02-01T13:57:34;9.80;;;3.95;;
42198;SDS011;27868;45.184;5.786;2023-02-01T14:03:13;7.75;;;4.13;;
42198;SDS011;27868;45.184;5.786;2023-02-01T14:06:01;7.65;;;4.28;;
42198;SDS011;27868;45.184;5.786;2023-02-01T14:09:09;8.35;;;3.80;;
42198;SDS011;27868;45.184;5.786;2023-02-01T14:11:53;8.98;;;3.53;;
42198;SDS011;27868;45.184;5.786;2023-02-01T14:14:40;10.13;;;4.93;;
42198;SDS011;27868;45.184;5.786;2023-02-01T14:17:29;6.57;;;4.00;;
42198;SDS011;27868;45.184;5.786;2023-02-01T14:23:21;9.55;;;4.38;;
42198;SDS011;27868;45.184;5.786;2023-02-01T14:26:08;9.85;;;3.70;;
42198;SDS011;27868;45.184;5.786;2023-02-01T14:34:51;5.93;;;3.47;;
42198;SDS011;27868;45.184;5.786;2023-02-01T14:37:40;8.23;;;4.03;;
42198;SDS011;27868;45.184;5.786;2023-02-01T14:40:26;6.55;;;3.45;;
42198;SDS011;27868;45.184;5.786;2023-02-01T14:43:12;6.75;;;3.60;;
42198;SDS011;27868;45.184;5.786;2023-02-01T14:45:57;7.60;;;4.10;;
42198;SDS011;27868;45.184;5.786;2023-02-01T14:48:43;10.20;;;3.60;;
42198;SDS011;27868;45.184;5.786;2023-02-01T14:51:30;20.20;;;8.43;;
42198;SDS011;27868;45.184;5.786;2023-02-01T14:54:15;12.63;;;6.03;;
42198;SDS011;27868;45.184;5.786;2023-02-01T14:57:02;6.13;;;3.17;;
42198;SDS011;27868;45.184;5.786;2023-02-01T14:59:48;5.13;;;2.63;;
42198;SDS011;27868;45.184;5.786;2023-02-01T15:02:37;7.95;;;3.05;;
42198;SDS011;27868;45.184;5.786;2023-02-01T15:05:28;5.25;;;2.72;;
42198;SDS011;27868;45.184;5.786;2023-02-01T15:11:02;4.82;;;2.47;;
42198;SDS011;27868;45.184;5.786;2023-02-01T15:13:57;9.32;;;3.65;;
42198;SDS011;27868;45.184;5.786;2023-02-01T15:16:44;9.18;;;3.15;;
42198;SDS011;27868;45.184;5.786;2023-02-01T15:19:37;4.57;;;2.70;;
42198;SDS011;27868;45.184;5.786;2023-02-01T15:22:22;9.20;;;3.22;;
42198;SDS011;27868;45.184;5.786;2023-02-01T15:25:18;5.25;;;2.80;;
42198;SDS011;27868;45.184;5.786;2023-02-01T15:31:00;7.15;;;3.00;;
42198;SDS011;27868;45.184;5.786;2023-02-01T15:33:57;7.15;;;2.72;;
42198;SDS011;27868;45.184;5.786;2023-02-01T15:36:42;5.30;;;2.35;;
42198;SDS011;27868;45.184;5.786;2023-02-01T15:39:27;4.70;;;2.47;;
42198;SDS011;27868;45.184;5.786;2023-02-01T15:42:15;13.00;;;4.43;;
42198;SDS011;27868;45.184;5.786;2023-02-01T15:45:04;7.97;;;3.85;;
42198;SDS011;27868;45.184;5.786;2023-02-01T15:47:59;7.93;;;3.20;;
42198;SDS011;27868;45.184;5.786;2023-02-01T15:50:44;7.15;;;3.08;;
42198;SDS011;27868;45.184;5.786;2023-02-01T15:53:28;4.18;;;2.40;;
42198;SDS011;27868;45.184;5.786;2023-02-01T15:56:14;7.90;;;3.20;;
42198;SDS011;27868;45.184;5.786;2023-02-01T15:59:00;7.93;;;2.95;;
42198;SDS011;27868;45.184;5.786;2023-02-01T16:01:47;8.50;;;4.07;;
42198;SDS011;27868;45.184;5.786;2023-02-01T16:04:32;6.10;;;3.53;;
42198;SDS011;27868;45.184;5.786;2023-02-01T16:07:22;7.20;;;4.15;;
42198;SDS011;27868;45.184;5.786;2023-02-01T16:10:25;12.15;;;3.75;;
42198;SDS011;27868;45.184;5.786;2023-02-01T16:13:12;7.28;;;3.30;;
42198;SDS011;27868;45.184;5.786;2023-02-01T16:15:57;5.78;;;3.22;;
42198;SDS011;27868;45.184;5.786;2023-02-01T16:18:42;5.63;;;3.17;;
42198;SDS011;27868;45.184;5.786;2023-02-01T16:21:28;6.40;;;3.90;;
42198;SDS011;27868;45.184;5.786;2023-02-01T16:24:12;8.10;;;3.35;;
42198;SDS011;27868;45.184;5.786;2023-02-01T16:26:57;5.10;;;3.38;;
42198;SDS011;27868;45.184;5.786;2023-02-01T16:29:41;13.52;;;6.05;;
42198;SDS011;27868;45.184;5.786;2023-02-01T16:32:26;12.68;;;7.63;;
42198;SDS011;27868;45.184;5.786;2023-02-01T16:35:13;12.20;;;6.75;;
42198;SDS011;27868;45.184;5.786;2023-02-01T16:38:13;11.15;;;5.85;;
42198;SDS011;27868;45.184;5.786;2023-02-01T16:41:02;7.53;;;4.30;;
42198;SDS011;27868;45.184;5.786;2023-02-01T16:43:50;7.80;;;4.32;;
42198;SDS011;27868;45.184;5.786;2023-02-01T16:46:39;19.52;;;7.60;;
42198;SDS011;27868;45.184;5.786;2023-02-01T16:49:27;12.95;;;7.45;;
42198;SDS011;27868;45.184;5.786;2023-02-01T16:52:18;16.17;;;6.75;;
42198;SDS011;27868;45.184;5.786;2023-02-01T16:55:12;14.05;;;7.15;;
42198;SDS011;27868;45.184;5.786;2023-02-01T16:57:59;12.60;;;6.22;;
42198;SDS011;27868;45.184;5.786;2023-02-01T17:00:45;12.93;;;5.28;;
42198;SDS011;27868;45.184;5.786;2023-02-01T17:03:30;11.45;;;5.25;;
42198;SDS011;27868;45.184;5.786;2023-02-01T17:06:17;10.18;;;5.25;;
42198;SDS011;27868;45.184;5.786;2023-02-01T17:09:04;9.15;;;5.00;;
42198;SDS011;27868;45.184;5.786;2023-02-01T17:11:50;7.40;;;4.32;;
42198;SDS011;27868;45.184;5.786;2023-02-01T17:14:35;8.25;;;4.22;;
42198;SDS011;27868;45.184;5.786;2023-02-01T17:17:34;12.52;;;4.70;;
42198;SDS011;27868;45.184;5.786;2023-02-01T17:20:21;8.02;;;4.10;;
42198;SDS011;27868;45.184;5.786;2023-02-01T17:23:07;9.32;;;4.70;;
42198;SDS011;27868;45.184;5.786;2023-02-01T17:25:52;10.13;;;4.63;;
42198;SDS011;27868;45.184;5.786;2023-02-01T17:28:37;11.73;;;5.00;;
42198;SDS011;27868;45.184;5.786;2023-02-01T17:31:22;7.32;;;4.63;;
42198;SDS011;27868;45.184;5.786;2023-02-01T17:34:10;6.93;;;4.47;;
42198;SDS011;27868;45.184;5.786;2023-02-01T17:36:57;10.32;;;4.63;;
42198;SDS011;27868;45.184;5.786;2023-02-01T17:39:41;8.85;;;5.30;;
42198;SDS011;27868;45.184;5.786;2023-02-01T17:42:38;8.43;;;5.65;;
42198;SDS011;27868;45.184;5.786;2023-02-01T17:45:36;10.13;;;6.35;;
42198;SDS011;27868;45.184;5.786;2023-02-01T17:48:25;8.85;;;6.22;;
42198;SDS011;27868;45.184;5.786;2023-02-01T17:51:18;11.30;;;6.00;;
42198;SDS011;27868;45.184;5.786;2023-02-01T17:54:04;11.25;;;7.20;;
42198;SDS011;27868;45.184;5.786;2023-02-01T17:56:48;13.57;;;8.85;;
42198;SDS011;27868;45.184;5.786;2023-02-01T17:59:33;22.30;;;10.73;;
42198;SDS011;27868;45.184;5.786;2023-02-01T18:02:19;10.68;;;5.53;;
42198;SDS011;27868;45.184;5.786;2023-02-01T18:05:20;8.82;;;4.93;;
42198;SDS011;27868;45.184;5.786;2023-02-01T18:08:28;12.10;;;6.03;;
42198;SDS011;27868;45.184;5.786;2023-02-01T18:11:17;11.10;;;5.97;;
42198;SDS011;27868;45.184;5.786;2023-02-01T18:14:03;15.23;;;7.35;;
42198;SDS011;27868;45.184;5.786;2023-02-01T18:16:48;12.15;;;7.15;;
42198;SDS011;27868;45.184;5.786;2023-02-01T18:19:33;12.30;;;7.18;;
42198;SDS011;27868;45.184;5.786;2023-02-01T18:22:18;10.35;;;5.60;;
42198;SDS011;27868;45.184;5.786;2023-02-01T18:25:16;11.63;;;6.38;;
42198;SDS011;27868;45.184;5.786;2023-02-01T18:28:04;12.35;;;6.10;;
42198;SDS011;27868;45.184;5.786;2023-02-01T18:30:49;8.85;;;5.70;;
42198;SDS011;27868;45.184;5.786;2023-02-01T18:33:34;7.25;;;5.03;;
42198;SDS011;27868;45.184;5.786;2023-02-01T18:36:19;12.85;;;6.03;;
42198;SDS011;27868;45.184;5.786;2023-02-01T18:39:04;15.65;;;5.95;;
42198;SDS011;27868;45.184;5.786;2023-02-01T18:41:48;17.05;;;6.63;;